Time;durP1;ratioP1;P1;durP2;ratioP2;P2;SDS_P1;SDS_P2;PMS_P1;PMS_P2;Temp;Humidity;BMP_temperature;BMP_pressure;BME280_temperature;BME280_humidity;BME280_pressure;Samples;Min_cycle;Max_cycle;Signal;HPM_P1;HPM_P2
2021/09/11 00:00:45;;;;;;;12.80;11.60;;;;;;;17.86;87.47;95749.09;5040681;28;20247;-69
2021/09/11 00:03:13;;;;;;;11.80;10.90;;;;;;;17.86;87.66;95746.41;5024419;28;20243;-68
2021/09/11 00:05:42;;;;;;;13.80;12.73;;;;;;;17.82;87.81;95737.22;5035335;28;20223;-68
2021/09/11 00:08:09;;;;;;;12.87;11.83;;;;;;;17.80;88.08;95743.81;5040462;28;20308;-69
2021/09/11 00:10:39;;;;;;;14.03;12.90;;;;;;;17.86;88.00;95743.75;5038883;28;20582;-68
2021/09/11 00:13:07;;;;;;;12.30;11.20;;;;;;;17.82;88.16;95744.41;5043997;28;20211;-69
2021/09/11 00:15:36;;;;;;;11.97;11.10;;;;;;;17.78;88.60;95740.56;5036157;28;20603;-69
2021/09/11 00:18:06;;;;;;;13.97;12.97;;;;;;;17.79;88.64;95747.53;5026172;28;20242;-69
2021/09/11 00:20:34;;;;;;;14.83;12.23;;;;;;;17.76;88.93;95742.66;5040626;28;20313;-69
2021/09/11 00:23:09;;;;;;;13.70;12.67;;;;;;;17.72;88.85;95747.63;5021845;28;20222;-68
2021/09/11 00:25:39;;;;;;;13.77;12.47;;;;;;;17.67;89.02;95742.13;5041284;28;20226;-68
2021/09/11 00:28:07;;;;;;;12.93;11.93;;;;;;;17.78;88.74;95746.72;5042522;28;20356;-69
2021/09/11 00:30:35;;;;;;;12.67;11.67;;;;;;;17.78;88.85;95745.91;5040594;28;20242;-69
2021/09/11 00:33:04;;;;;;;13.07;11.97;;;;;;;17.86;88.65;95754.41;5011301;28;20235;-69
2021/09/11 00:35:32;;;;;;;13.53;12.33;;;;;;;17.95;88.35;95762.13;5040852;28;21996;-69
2021/09/11 00:38:00;;;;;;;11.67;10.87;;;;;;;18.03;87.86;95762.59;5042501;28;20681;-69
2021/09/11 00:40:28;;;;;;;11.00;10.23;;;;;;;18.07;87.51;95760.28;5043090;28;20480;-69
2021/09/11 00:42:58;;;;;;;10.33;9.47;;;;;;;18.08;87.47;95772.59;5043443;28;20571;-70
2021/09/11 00:45:26;;;;;;;10.67;9.93;;;;;;;18.13;87.08;95775.41;5040173;28;20695;-71
2021/09/11 00:47:54;;;;;;;11.67;10.53;;;;;;;18.16;86.88;95772.28;5043295;28;20221;-68
2021/09/11 00:50:22;;;;;;;11.67;10.80;;;;;;;18.22;86.74;95774.03;5036047;28;20463;-68
2021/09/11 00:52:51;;;;;;;11.23;10.37;;;;;;;18.22;86.55;95779.38;5040217;28;20239;-69
2021/09/11 00:55:20;;;;;;;12.37;11.57;;;;;;;18.22;86.58;95782.06;5038592;28;20215;-68
2021/09/11 00:57:50;;;;;;;11.50;10.63;;;;;;;18.15;86.66;95781.31;5042273;28;20317;-68
2021/09/11 01:00:19;;;;;;;12.30;11.40;;;;;;;18.24;86.43;95781.81;5041532;28;20229;-68
2021/09/11 01:02:47;;;;;;;11.33;10.43;;;;;;;18.21;86.35;95775.09;5036372;28;20287;-69
2021/09/11 01:05:16;;;;;;;12.77;11.77;;;;;;;18.19;86.46;95774.47;5035992;28;20258;-69
2021/09/11 01:07:46;;;;;;;10.20;9.47;;;;;;;18.19;87.06;95779.81;5039291;28;20269;-69
2021/09/11 01:10:14;;;;;;;11.20;10.47;;;;;;;18.15;87.29;95776.78;5039869;28;20305;-69
2021/09/11 01:12:44;;;;;;;9.80;9.20;;;;;;;18.09;87.94;95776.88;5041755;28;20313;-69
2021/09/11 01:15:13;;;;;;;10.93;10.17;;;;;;;18.03;88.54;95775.16;5038648;28;20227;-70
2021/09/11 01:17:43;;;;;;;11.67;10.83;;;;;;;17.89;89.57;95772.66;5024621;28;20249;-69
2021/09/11 01:20:13;;;;;;;12.87;11.87;;;;;;;17.89;90.28;95774.50;5039001;28;20231;-69
2021/09/11 01:22:40;;;;;;;12.37;11.47;;;;;;;17.81;90.30;95772.97;5038685;28;20307;-69
2021/09/11 01:25:11;;;;;;;16.00;12.07;;;;;;;17.75;90.78;95770.41;5034838;28;20298;-69
2021/09/11 01:27:39;;;;;;;10.97;10.27;;;;;;;17.70;91.40;95776.41;5020924;28;20218;-69
2021/09/11 01:30:12;;;;;;;12.10;11.23;;;;;;;17.65;91.67;95781.59;5041679;28;20464;-69
2021/09/11 01:32:40;;;;;;;11.53;10.57;;;;;;;17.52;91.76;95784.41;5039224;28;20766;-69
2021/09/11 01:35:09;;;;;;;12.83;11.93;;;;;;;17.47;92.08;95773.59;5021778;28;20238;-68
2021/09/11 01:37:38;;;;;;;12.33;11.43;;;;;;;17.48;92.33;95780.56;5039717;28;20202;-68
2021/09/11 01:40:07;;;;;;;10.73;10.13;;;;;;;17.45;92.50;95778.31;5037798;28;20247;-69
2021/09/11 01:42:37;;;;;;;11.93;11.03;;;;;;;17.52;92.17;95779.88;5043370;28;20308;-69
2021/09/11 01:45:08;;;;;;;10.30;9.60;;;;;;;17.54;91.99;95782.31;5036762;28;20633;-69
2021/09/11 01:47:36;;;;;;;10.57;9.80;;;;;;;17.54;91.89;95777.78;5041667;28;20318;-69
2021/09/11 01:50:05;;;;;;;10.67;9.87;;;;;;;17.53;91.55;95780.69;5037727;28;20230;-69
2021/09/11 01:52:33;;;;;;;10.93;10.23;;;;;;;17.54;91.90;95782.31;5041748;28;20732;-69
2021/09/11 01:55:04;;;;;;;10.80;10.07;;;;;;;17.52;91.50;95779.88;5034970;28;20587;-69
2021/09/11 01:57:32;;;;;;;11.27;10.57;;;;;;;17.53;91.02;95775.34;5040437;28;20269;-69
2021/09/11 02:00:01;;;;;;;11.43;10.53;;;;;;;17.51;91.41;95777.44;5037413;28;20258;-69
2021/09/11 02:02:30;;;;;;;12.87;11.97;;;;;;;17.48;90.90;95777.91;5043044;28;20226;-69
2021/09/11 02:04:59;;;;;;;10.50;9.70;;;;;;;17.39;91.32;95780.06;5041100;28;20276;-69
2021/09/11 02:07:27;;;;;;;11.97;10.87;;;;;;;17.33;91.62;95780.94;5030041;28;20288;-70
2021/09/11 02:09:55;;;;;;;10.97;10.20;;;;;;;17.25;92.00;95782.03;5042196;28;20313;-69
2021/09/11 02:12:23;;;;;;;10.57;9.87;;;;;;;17.20;92.25;95783.75;5042392;28;20246;-69
2021/09/11 02:14:51;;;;;;;11.43;10.57;;;;;;;17.18;92.48;95778.63;5033895;28;20231;-68
2021/09/11 02:17:21;;;;;;;8.80;8.23;;;;;;;17.16;92.38;95782.56;5036298;28;20762;-69
2021/09/11 02:19:49;;;;;;;11.57;10.67;;;;;;;17.09;92.77;95779.13;5035612;28;20308;-69
2021/09/11 02:22:17;;;;;;;10.17;9.47;;;;;;;17.08;92.94;95789.00;5041388;28;20325;-69
2021/09/11 02:24:45;;;;;;;9.53;8.93;;;;;;;17.04;92.46;95790.47;5046772;28;20288;-69
2021/09/11 02:27:13;;;;;;;9.10;8.60;;;;;;;17.03;92.74;95780.84;5028702;28;20227;-69
2021/09/11 02:29:40;;;;;;;10.23;9.57;;;;;;;16.99;92.41;95782.31;5038927;28;20227;-69
2021/09/11 02:32:09;;;;;;;7.27;6.70;;;;;;;16.96;92.50;95796.91;5046194;28;20642;-69
2021/09/11 02:34:39;;;;;;;9.00;8.40;;;;;;;16.92;92.77;95786.94;5046511;28;20238;-69
2021/09/11 02:37:09;;;;;;;9.87;9.10;;;;;;;16.84;92.98;95792.53;5040699;28;20804;-69
2021/09/11 02:39:37;;;;;;;10.40;9.57;;;;;;;16.80;93.18;95791.31;5043435;28;20640;-68
2021/09/11 02:42:06;;;;;;;9.40;8.83;;;;;;;16.77;93.28;95787.25;5038061;28;20293;-69
2021/09/11 02:44:35;;;;;;;8.23;7.63;;;;;;;16.75;93.17;95790.16;5025083;28;20764;-69
2021/09/11 02:47:03;;;;;;;8.67;8.07;;;;;;;16.70;93.16;95783.84;5034464;28;20311;-70
2021/09/11 02:49:31;;;;;;;8.57;8.00;;;;;;;16.63;93.27;95780.38;5041398;28;20296;-69
2021/09/11 02:52:00;;;;;;;8.97;8.27;;;;;;;16.70;93.44;95786.50;5043467;28;20215;-69
2021/09/11 02:54:28;;;;;;;7.27;6.77;;;;;;;16.72;92.99;95779.09;5040249;28;20317;-69
2021/09/11 02:56:56;;;;;;;7.97;7.33;;;;;;;16.75;92.53;95784.81;5042832;28;20258;-69
2021/09/11 02:59:24;;;;;;;8.37;7.60;;;;;;;16.74;92.56;95785.84;5041783;28;20471;-69
2021/09/11 03:01:53;;;;;;;8.90;8.30;;;;;;;16.77;91.96;95790.72;5027797;28;20323;-69
2021/09/11 03:04:21;;;;;;;8.67;8.07;;;;;;;16.72;92.04;95785.22;5045687;28;20618;-69
2021/09/11 03:06:49;;;;;;;6.63;6.23;;;;;;;16.66;92.03;95786.09;5019474;28;20227;-69
2021/09/11 03:09:18;;;;;;;7.93;7.43;;;;;;;16.67;92.07;95782.41;5041037;28;20418;-69
2021/09/11 03:11:46;;;;;;;7.13;6.63;;;;;;;16.65;92.24;95789.78;5036422;28;20437;-69
2021/09/11 03:14:14;;;;;;;5.83;5.53;;;;;;;16.63;92.40;95781.19;5043748;28;20310;-69
2021/09/11 03:16:43;;;;;;;6.57;6.17;;;;;;;16.61;92.45;95783.25;5043524;28;20233;-69
2021/09/11 03:19:11;;;;;;;6.60;6.20;;;;;;;16.62;92.44;95784.88;5041865;28;20284;-70
2021/09/11 03:21:39;;;;;;;8.50;7.93;;;;;;;16.63;92.73;95775.84;5037346;28;20326;-69
2021/09/11 03:24:07;;;;;;;6.80;6.30;;;;;;;16.65;92.75;95787.13;5027416;28;20227;-69
2021/09/11 03:26:36;;;;;;;7.97;7.50;;;;;;;16.67;92.82;95779.72;5044725;28;20302;-69
2021/09/11 03:29:04;;;;;;;7.60;7.20;;;;;;;16.66;92.83;95775.44;5038203;28;20352;-69
2021/09/11 03:31:33;;;;;;;9.07;8.37;;;;;;;16.71;92.76;95777.47;5042286;28;20864;-68
2021/09/11 03:34:01;;;;;;;10.23;9.53;;;;;;;16.83;92.28;95777.59;5045401;28;20219;-69
2021/09/11 03:36:29;;;;;;;9.47;8.83;;;;;;;16.85;91.94;95775.50;5041042;28;20837;-69
2021/09/11 03:38:57;;;;;;;7.57;6.87;;;;;;;16.83;91.93;95777.59;5040826;28;20305;-68
2021/09/11 03:41:26;;;;;;;6.43;6.03;;;;;;;16.78;91.90;95781.69;5045226;28;20445;-68
2021/09/11 03:43:55;;;;;;;7.63;7.13;;;;;;;16.75;nan;95784.81;5042113;28;20220;-69
2021/09/11 03:46:23;;;;;;;7.20;6.73;;;;;;;16.76;91.75;95783.78;5041881;28;20718;-69
2021/09/11 03:48:52;;;;;;;7.33;6.83;;;;;;;16.81;91.48;95787.63;5023041;28;20230;-69
2021/09/11 03:51:19;;;;;;;6.37;5.97;;;;;;;16.73;91.58;95786.03;5042162;28;20274;-69
2021/09/11 03:53:48;;;;;;;7.03;6.63;;;;;;;16.69;91.71;95784.88;5041226;28;20223;-69
2021/09/11 03:56:16;;;;;;;9.07;7.90;;;;;;;16.69;91.61;95788.34;5040427;28;20542;-71
2021/09/11 03:58:44;;;;;;;6.27;5.83;;;;;;;16.70;91.48;95792.63;5022737;28;20226;-70
2021/09/11 04:01:13;;;;;;;7.57;7.10;;;;;;;16.70;91.37;95792.63;5040018;28;20285;-71
2021/09/11 04:03:42;;;;;;;7.33;6.90;;;;;;;16.73;91.43;95789.56;5040497;28;20226;-71
2021/09/11 04:06:10;;;;;;;7.47;6.87;;;;;;;16.83;90.93;95786.38;5026639;28;20269;-71
2021/09/11 04:08:38;;;;;;;7.97;7.50;;;;;;;16.91;90.55;95783.41;5039274;28;20222;-70
2021/09/11 04:11:06;;;;;;;7.03;6.63;;;;;;;16.88;90.76;95783.06;5040951;28;20294;-71
2021/09/11 04:13:34;;;;;;;8.23;7.67;;;;;;;16.86;91.04;95785.13;5023883;28;20314;-71
2021/09/11 04:16:03;;;;;;;7.10;6.70;;;;;;;16.86;91.34;95782.47;5042088;28;20254;-71
2021/09/11 04:18:32;;;;;;;9.47;8.87;;;;;;;16.87;91.71;95782.25;5043178;28;20314;-70
2021/09/11 04:21:01;;;;;;;7.73;7.33;;;;;;;16.86;91.75;95783.28;5040385;28;20691;-71
2021/09/11 04:23:29;;;;;;;8.60;8.10;;;;;;;16.83;91.76;95785.56;5042623;28;20655;-71
2021/09/11 04:25:56;;;;;;;7.07;6.67;;;;;;;16.81;92.06;95785.78;5043183;28;20298;-71
2021/09/11 04:28:24;;;;;;;6.47;6.10;;;;;;;16.78;92.30;95794.22;5043283;28;20322;-70
2021/09/11 04:30:52;;;;;;;6.80;6.40;;;;;;;16.76;92.60;95790.97;5040177;28;20222;-69
2021/09/11 04:33:21;;;;;;;7.43;7.03;;;;;;;16.77;92.89;95792.59;5040172;28;20207;-68
2021/09/11 04:35:50;;;;;;;9.83;8.83;;;;;;;16.76;93.01;95794.44;5040366;28;20235;-69
2021/09/11 04:38:19;;;;;;;7.93;7.53;;;;;;;16.65;93.60;95787.13;5034445;28;20299;-68
2021/09/11 04:40:47;;;;;;;7.87;7.43;;;;;;;16.72;93.24;95795.91;5043478;28;20250;-68
2021/09/11 04:43:18;;;;;;;6.33;6.03;;;;;;;16.70;93.38;95795.31;5039477;28;20219;-68
2021/09/11 04:45:45;;;;;;;5.07;4.87;;;;;;;16.68;93.14;95794.72;5035966;28;20310;-68
2021/09/11 04:48:14;;;;;;;5.93;5.63;;;;;;;16.67;93.17;95792.25;5039578;28;20221;-68
2021/09/11 04:50:42;;;;;;;5.53;5.20;;;;;;;16.67;93.28;95792.25;5038912;28;20273;-68
2021/09/11 04:53:11;;;;;;;6.23;5.87;;;;;;;16.66;93.26;95795.94;5041091;28;20235;-70
2021/09/11 04:55:39;;;;;;;8.07;7.00;;;;;;;16.66;93.24;95791.44;5042594;28;20272;-68
2021/09/11 04:58:08;;;;;;;6.40;6.00;;;;;;;16.67;93.41;95802.91;5043311;28;20227;-68
2021/09/11 05:00:36;;;;;;;7.23;6.73;;;;;;;16.65;93.42;95795.13;5036793;28;20227;-68
2021/09/11 05:03:04;;;;;;;6.33;5.93;;;;;;;16.64;93.40;95798.81;5037888;28;20237;-68
2021/09/11 05:05:33;;;;;;;6.83;6.53;;;;;;;16.64;93.40;95803.31;5018971;28;20322;-67
2021/09/11 05:08:01;;;;;;;6.63;6.13;;;;;;;16.63;93.71;95793.69;5041979;28;20254;-68
2021/09/11 05:10:31;;;;;;;8.37;7.77;;;;;;;16.63;93.57;95796.34;5043596;28;20766;-69
2021/09/11 05:12:59;;;;;;;5.43;5.13;;;;;;;16.62;93.52;95794.72;5025187;28;20227;-67
2021/09/11 05:15:27;;;;;;;6.47;6.17;;;;;;;16.62;93.48;95795.53;5024249;28;20306;-67
2021/09/11 05:17:55;;;;;;;6.60;6.27;;;;;;;16.62;93.65;95795.53;5042582;28;20314;-68
2021/09/11 05:20:23;;;;;;;6.60;6.23;;;;;;;16.62;93.57;95792.06;5037993;28;20610;-68
2021/09/11 05:22:52;;;;;;;7.87;7.23;;;;;;;16.62;93.54;95790.22;5042143;28;20211;-69
2021/09/11 05:25:19;;;;;;;6.73;6.37;;;;;;;16.61;93.60;95796.56;5042480;28;20214;-68
2021/09/11 05:27:49;;;;;;;5.73;5.33;;;;;;;16.62;93.73;95794.72;5039331;28;20223;-68
2021/09/11 05:30:18;;;;;;;6.53;6.13;;;;;;;16.62;93.72;95806.19;5033405;28;20549;-69
2021/09/11 05:32:46;;;;;;;7.63;7.13;;;;;;;16.63;93.80;95805.16;5036372;28;20257;-68
2021/09/11 05:35:15;;;;;;;6.40;6.00;;;;;;;16.65;93.80;95808.44;5041238;28;20223;-68
2021/09/11 05:37:44;;;;;;;5.33;5.03;;;;;;;16.66;93.83;95807.41;5040753;28;20684;-68
2021/09/11 05:40:12;;;;;;;6.43;5.93;;;;;;;16.68;93.79;95810.69;5041774;28;20234;-68
2021/09/11 05:42:40;;;;;;;7.13;6.53;;;;;;;16.69;93.90;95812.31;5043114;28;20229;-66
2021/09/11 05:45:10;;;;;;;6.70;6.20;;;;;;;16.71;93.97;95810.25;5039940;28;20682;-67
2021/09/11 05:47:38;;;;;;;6.77;6.37;;;;;;;16.73;94.13;95812.69;5037986;28;20318;-66
2021/09/11 05:50:07;;;;;;;7.43;7.03;;;;;;;16.76;93.89;95815.75;5040572;28;20754;-67
2021/09/11 05:52:35;;;;;;;6.53;6.23;;;;;;;16.78;93.95;95811.03;5040582;28;20356;-69
2021/09/11 05:55:04;;;;;;;6.40;6.00;;;;;;;16.85;93.77;95821.63;5044139;28;20774;-68
2021/09/11 05:57:32;;;;;;;6.20;5.90;;;;;;;16.90;94.01;95828.94;5024008;28;20313;-68
2021/09/11 06:00:00;;;;;;;6.93;6.53;;;;;;;16.95;93.78;95821.13;5045164;28;20663;-69
2021/09/11 06:02:39;;;;;;;6.63;6.23;;;;;;;16.98;93.81;95816.16;5043285;28;20768;-68
2021/09/11 06:05:08;;;;;;;7.40;7.00;;;;;;;17.02;93.53;95825.38;5026614;28;20713;-69
2021/09/11 06:07:37;;;;;;;6.07;5.67;;;;;;;17.05;93.53;95813.44;5044874;28;20306;-68
2021/09/11 06:10:06;;;;;;;7.63;7.13;;;;;;;17.09;93.49;95822.63;5038658;28;20317;-68
2021/09/11 06:12:35;;;;;;;6.50;6.10;;;;;;;17.10;93.15;95821.59;5046857;28;20310;-66
2021/09/11 06:15:04;;;;;;;6.50;6.10;;;;;;;17.12;92.94;95822.19;5044220;28;20281;-68
2021/09/11 06:17:32;;;;;;;4.97;4.70;;;;;;;17.16;91.83;95820.72;5044340;28;20449;-66
2021/09/11 06:20:02;;;;;;;5.00;4.67;;;;;;;17.17;91.88;95822.34;5044668;28;20207;-68
2021/09/11 06:22:30;;;;;;;5.10;4.80;;;;;;;17.28;90.65;95826.97;5041472;28;20701;-67
2021/09/11 06:24:57;;;;;;;4.43;4.23;;;;;;;17.30;90.11;95829.41;5027138;28;20237;-67
2021/09/11 06:27:26;;;;;;;5.00;4.80;;;;;;;17.31;90.46;95826.50;5045244;28;20301;-68
2021/09/11 06:29:54;;;;;;;4.40;4.20;;;;;;;17.36;90.42;95820.50;5038199;28;20606;-68
2021/09/11 06:32:21;;;;;;;4.10;3.90;;;;;;;17.42;90.50;95824.13;5032808;28;20653;-66
2021/09/11 06:34:50;;;;;;;4.93;4.53;;;;;;;17.45;90.61;95827.16;5045773;28;20255;-68
2021/09/11 06:37:19;;;;;;;3.20;3.10;;;;;;;17.51;90.61;95825.47;5045258;28;20314;-67
2021/09/11 06:39:47;;;;;;;4.20;4.00;;;;;;;17.56;89.72;95826.44;5041262;28;20338;-68
2021/09/11 06:42:19;;;;;;;5.13;4.70;;;;;;;17.61;88.81;95831.91;5044267;28;20376;-69
2021/09/11 06:44:47;;;;;;;4.13;3.93;;;;;;;17.64;88.91;95831.44;5032241;28;20254;-68
2021/09/11 06:47:15;;;;;;;3.73;3.53;;;;;;;17.74;88.91;95824.78;5039785;28;20211;-69
2021/09/11 06:49:43;;;;;;;3.87;3.57;;;;;;;17.86;88.46;95829.16;5034588;28;20306;-68
2021/09/11 06:52:12;;;;;;;8.57;5.20;;;;;;;17.97;86.49;95830.25;5038706;28;20223;-67
2021/09/11 06:54:42;;;;;;;5.10;3.40;;;;;;;17.95;86.49;95826.19;5048017;28;20309;-68
2021/09/11 06:57:10;;;;;;;4.17;3.97;;;;;;;18.00;87.07;95832.47;5046809;28;20250;-69
2021/09/11 06:59:38;;;;;;;4.27;3.83;;;;;;;18.06;86.68;95822.75;5043310;28;20238;-68
2021/09/11 07:02:06;;;;;;;3.90;3.70;;;;;;;18.07;86.37;95821.72;5045623;28;20287;-68
2021/09/11 07:04:34;;;;;;;4.23;3.93;;;;;;;18.03;87.05;95836.56;5044485;28;20665;-67
2021/09/11 07:07:02;;;;;;;4.20;4.00;;;;;;;18.06;86.91;95828.09;5040536;28;20306;-69
2021/09/11 07:09:30;;;;;;;4.10;3.87;;;;;;;18.11;86.87;95830.91;5042031;28;20237;-67
2021/09/11 07:12:01;;;;;;;3.37;3.17;;;;;;;18.16;85.78;95833.69;5042210;28;20334;-69
2021/09/11 07:14:29;;;;;;;4.47;4.17;;;;;;;18.20;85.54;95840.22;5044409;28;20226;-71
2021/09/11 07:16:56;;;;;;;3.33;3.13;;;;;;;18.18;85.74;95837.78;5041704;28;20306;-70
2021/09/11 07:19:24;;;;;;;4.83;3.60;;;;;;;18.17;86.03;95833.47;5040702;28;20298;-70
2021/09/11 07:21:53;;;;;;;3.07;2.87;;;;;;;18.16;86.17;95834.50;5041385;28;20680;-70
2021/09/11 07:24:20;;;;;;;4.47;4.27;;;;;;;18.18;85.44;95847.63;5041994;28;20238;-70
2021/09/11 07:26:48;;;;;;;4.73;4.33;;;;;;;18.12;85.94;95848.56;5050388;28;20328;-70
2021/09/11 07:29:17;;;;;;;3.50;3.27;;;;;;;18.13;86.24;95839.50;5037165;28;21907;-71
2021/09/11 07:31:45;;;;;;;3.70;3.47;;;;;;;18.17;86.35;95848.69;5038046;28;20330;-70
2021/09/11 07:34:13;;;;;;;3.10;2.67;;;;;;;18.16;86.52;95855.88;5051067;28;20226;-70
2021/09/11 07:36:41;;;;;;;4.17;3.70;;;;;;;18.16;86.10;95847.06;5041171;28;20606;-70
2021/09/11 07:39:10;;;;;;;4.73;4.53;;;;;;;18.21;86.02;95841.06;5023048;28;20297;-71
2021/09/11 07:41:37;;;;;;;3.37;3.17;;;;;;;18.23;85.69;95844.31;5044471;28;20219;-70
2021/09/11 07:44:05;;;;;;;4.10;3.80;;;;;;;18.26;86.22;95850.00;5041966;28;20314;-70
2021/09/11 07:46:36;;;;;;;4.50;4.20;;;;;;;18.39;86.57;95849.00;5041289;28;20309;-70
2021/09/11 07:49:04;;;;;;;4.33;4.03;;;;;;;18.51;86.04;95852.50;5036463;28;20767;-71
2021/09/11 07:51:32;;;;;;;3.93;3.73;;;;;;;18.63;85.68;95857.88;5042470;28;20314;-71
2021/09/11 07:54:00;;;;;;;4.13;3.93;;;;;;;18.77;85.03;95856.69;5040104;28;20214;-71
2021/09/11 07:56:28;;;;;;;3.93;3.73;;;;;;;18.87;84.90;95846.22;5045896;28;20226;-71
2021/09/11 07:58:56;;;;;;;4.50;4.30;;;;;;;18.99;84.98;95849.72;5039345;28;20243;-71
2021/09/11 08:01:24;;;;;;;5.30;4.97;;;;;;;19.10;84.56;95844.59;5038829;28;20609;-71
2021/09/11 08:03:54;;;;;;;4.83;4.63;;;;;;;19.10;82.40;95847.28;5036946;28;20637;-70
2021/09/11 08:06:22;;;;;;;4.93;4.73;;;;;;;18.80;81.93;95861.56;5039795;28;20239;-71
2021/09/11 08:08:50;;;;;;;5.50;5.17;;;;;;;18.83;82.26;95855.72;5039387;28;20809;-71
2021/09/11 08:11:18;;;;;;;5.73;5.43;;;;;;;18.83;82.73;95849.56;5041399;28;20258;-70
2021/09/11 08:13:47;;;;;;;6.70;6.30;;;;;;;18.87;82.53;95856.09;5039071;28;20220;-71
2021/09/11 08:16:14;;;;;;;6.53;6.13;;;;;;;18.99;82.85;95855.06;5038200;28;20229;-71
2021/09/11 08:18:42;;;;;;;5.20;4.83;;;;;;;19.09;82.77;95864.38;5039181;28;20223;-71
2021/09/11 08:21:12;;;;;;;7.17;6.67;;;;;;;19.00;81.36;95856.69;5036447;28;20412;-71
2021/09/11 08:23:41;;;;;;;5.53;5.23;;;;;;;19.08;81.99;95857.41;5043116;28;20214;-70
2021/09/11 08:26:10;;;;;;;6.20;5.70;;;;;;;19.14;82.27;95867.19;5043669;28;20269;-71
2021/09/11 08:28:38;;;;;;;6.93;6.53;;;;;;;19.10;81.89;95861.47;5036864;28;20706;-70
2021/09/11 08:31:07;;;;;;;6.70;6.33;;;;;;;19.07;81.49;95863.78;5023896;28;20219;-71
2021/09/11 08:33:35;;;;;;;6.83;6.40;;;;;;;19.27;81.91;95864.25;5037887;28;20231;-71
2021/09/11 08:36:04;;;;;;;5.53;5.07;;;;;;;19.51;80.90;95854.34;5037508;28;20223;-71
2021/09/11 08:38:34;;;;;;;5.67;5.37;;;;;;;19.62;81.23;95852.75;5039350;28;20218;-71
2021/09/11 08:41:06;;;;;;;6.63;6.13;;;;;;;19.44;80.43;95851.78;5043205;28;20301;-71
2021/09/11 08:43:35;;;;;;;7.20;6.80;;;;;;;19.62;80.67;95852.75;5040998;28;20226;-70
2021/09/11 08:46:05;;;;;;;5.60;5.30;;;;;;;19.48;80.54;95863.69;5039178;28;20230;-71
2021/09/11 08:48:33;;;;;;;5.93;5.53;;;;;;;19.85;81.29;95858.06;5036711;28;20276;-71
2021/09/11 08:51:02;;;;;;;5.97;5.53;;;;;;;19.56;80.42;95857.97;5041248;28;20223;-71
2021/09/11 08:53:31;;;;;;;6.03;5.73;;;;;;;19.57;80.78;95861.50;5038039;28;20276;-71
2021/09/11 08:56:00;;;;;;;7.20;6.70;;;;;;;19.73;80.47;95854.56;5040136;28;20239;-70
2021/09/11 08:58:28;;;;;;;6.53;5.97;;;;;;;19.58;81.10;95861.25;5041285;28;20219;-70
2021/09/11 09:01:02;;;;;;;6.40;5.90;;;;;;;19.76;80.34;95862.16;5042977;28;20227;-70
2021/09/11 09:03:36;;;;;;;5.80;5.43;;;;;;;19.83;80.35;95855.59;5043221;28;20241;-70
2021/09/11 09:06:23;;;;;;;5.40;4.83;;;;;;;20.03;80.04;95854.41;5035416;28;20288;-70
2021/09/11 09:08:54;;;;;;;5.70;5.30;;;;;;;20.14;79.10;95857.03;5034883;28;20237;-70
2021/09/11 09:11:26;;;;;;;4.70;4.30;;;;;;;19.90;79.57;95860.81;5039191;28;20230;-70
2021/09/11 09:14:02;;;;;;;5.03;4.73;;;;;;;19.83;79.53;95857.44;5038997;28;20691;-71
2021/09/11 09:16:34;;;;;;;4.93;4.63;;;;;;;19.78;80.31;95857.38;5037640;28;20226;-70
2021/09/11 09:19:05;;;;;;;5.93;5.53;;;;;;;19.68;79.81;95857.16;5039051;28;20222;-71
2021/09/11 09:21:34;;;;;;;4.50;4.10;;;;;;;20.02;79.69;95850.88;5039167;28;20235;-70
2021/09/11 09:24:05;;;;;;;4.10;3.90;;;;;;;20.15;78.59;95855.97;5040116;28;20215;-70
2021/09/11 09:26:50;;;;;;;3.80;3.60;;;;;;;21.00;78.18;95856.94;5035999;28;20253;-70
2021/09/11 09:29:19;;;;;;;3.83;3.63;;;;;;;21.24;76.41;95855.69;5037575;28;20296;-70
2021/09/11 09:31:50;;;;;;;3.73;3.43;;;;;;;21.22;74.62;95852.47;5042818;28;20214;-70
2021/09/11 09:34:32;;;;;;;3.87;3.50;;;;;;;21.03;76.00;95853.78;5043139;28;20237;-70
2021/09/11 09:37:02;;;;;;;3.77;3.57;;;;;;;20.94;76.48;95847.19;5037821;28;20220;-70
2021/09/11 09:39:38;;;;;;;3.83;3.63;;;;;;;20.73;77.33;95854.06;5043183;28;20246;-70
2021/09/11 09:42:08;;;;;;;4.57;4.37;;;;;;;20.54;78.52;95855.34;5040615;28;20922;-71
2021/09/11 09:44:44;;;;;;;3.00;2.87;;;;;;;20.61;77.72;95856.84;5039960;28;20322;-70
2021/09/11 09:47:14;;;;;;;3.60;3.40;;;;;;;20.68;78.15;95857.50;5020809;28;20241;-70
2021/09/11 09:49:42;;;;;;;4.67;4.03;;;;;;;20.92;77.99;95851.97;5041582;28;20628;-70
2021/09/11 09:52:11;;;;;;;5.53;5.20;;;;;;;20.64;77.45;95852.84;5021059;28;20314;-70
2021/09/11 09:54:39;;;;;;;6.17;5.63;;;;;;;21.08;75.58;95843.09;5035752;28;20252;-71
2021/09/11 09:57:10;;;;;;;4.07;3.83;;;;;;;21.44;75.36;95854.41;5031642;28;20258;-70
2021/09/11 09:59:39;;;;;;;4.07;3.87;;;;;;;21.14;76.83;95844.00;5041161;28;20880;-70
2021/09/11 10:02:08;;;;;;;4.33;3.93;;;;;;;20.91;75.80;95856.53;5042220;28;20239;-70
2021/09/11 10:04:37;;;;;;;4.00;3.70;;;;;;;21.01;76.89;95853.19;5020140;28;20270;-70
2021/09/11 10:07:07;;;;;;;4.73;3.60;;;;;;;21.23;75.36;95846.03;5032117;28;20301;-71
2021/09/11 10:09:37;;;;;;;4.20;3.90;;;;;;;21.39;73.96;95839.00;5034713;28;20318;-70
2021/09/11 10:12:32;;;;;;;2.77;2.67;;;;;;;21.42;73.53;95851.16;5032546;28;20305;-70
2021/09/11 10:15:26;;;;;;;4.57;4.27;;;;;;;21.40;75.28;95842.53;5030050;28;20242;-68
2021/09/11 10:17:54;;;;;;;3.60;3.40;;;;;;;21.15;74.74;95846.44;5041401;28;20771;-68
2021/09/11 10:20:23;;;;;;;4.37;4.17;;;;;;;21.04;76.10;95839.31;5029508;28;20299;-68
2021/09/11 10:23:05;;;;;;;4.53;4.20;;;;;;;20.69;76.25;95842.22;5037540;28;20254;-68
2021/09/11 10:25:44;;;;;;;4.83;4.53;;;;;;;20.90;75.90;95838.00;5035249;28;20326;-68
2021/09/11 10:28:15;;;;;;;5.63;5.27;;;;;;;21.57;73.84;95833.34;5033839;28;20293;-70
2021/09/11 10:31:02;;;;;;;5.10;4.80;;;;;;;22.14;71.53;95837.59;5039344;28;20302;-70
2021/09/11 10:33:41;;;;;;;3.40;3.20;;;;;;;22.54;71.56;95831.00;5038373;28;20247;-70
2021/09/11 10:36:18;;;;;;;3.80;3.67;;;;;;;23.12;70.04;95826.66;5039262;28;20304;-70
2021/09/11 10:38:47;;;;;;;4.80;4.40;;;;;;;22.37;69.84;95823.84;5038818;28;20234;-71
2021/09/11 10:41:15;;;;;;;3.37;3.27;;;;;;;22.09;70.28;95829.44;5045715;28;20939;-70
2021/09/11 10:44:06;;;;;;;3.63;3.43;;;;;;;21.31;73.43;95833.28;5044785;28;20303;-70
2021/09/11 10:46:48;;;;;;;9.70;5.27;;;;;;;21.14;74.82;95827.91;5044693;28;20227;-70
2021/09/11 10:49:27;;;;;;;5.27;4.97;;;;;;;20.55;75.91;95828.28;5044709;28;20218;-70
2021/09/11 10:52:02;;;;;;;4.80;4.50;;;;;;;20.41;77.03;95821.59;5021187;28;20313;-70
2021/09/11 10:54:32;;;;;;;4.20;3.80;;;;;;;20.43;77.23;95816.84;5029335;28;20335;-70
2021/09/11 10:57:06;;;;;;;5.63;4.37;;;;;;;20.27;77.23;95813.03;5028987;28;20226;-70
2021/09/11 10:59:37;;;;;;;5.00;4.70;;;;;;;20.85;76.92;95805.72;5039047;28;20253;-70
2021/09/11 11:02:22;;;;;;;5.30;4.93;;;;;;;21.16;75.28;95802.44;5026706;28;20218;-70
2021/09/11 11:04:57;;;;;;;4.17;3.90;;;;;;;21.38;73.77;95797.13;5044393;28;20223;-70
2021/09/11 11:07:28;;;;;;;2.80;2.70;;;;;;;21.83;71.94;95804.94;5046244;28;20233;-70
2021/09/11 11:09:58;;;;;;;3.00;2.87;;;;;;;21.91;71.78;95794.81;5044891;28;20226;-70
2021/09/11 11:12:28;;;;;;;3.13;2.97;;;;;;;21.70;73.06;95808.03;5021512;28;20403;-70
2021/09/11 11:14:59;;;;;;;3.40;3.20;;;;;;;21.12;74.50;95801.31;5039853;28;20226;-70
2021/09/11 11:17:28;;;;;;;3.13;2.83;;;;;;;21.60;73.48;95799.03;5046811;28;20222;-70
2021/09/11 11:19:58;;;;;;;2.80;2.60;;;;;;;21.18;73.89;95792.25;5039908;28;20226;-70
2021/09/11 11:22:31;;;;;;;2.83;2.63;;;;;;;22.01;72.48;95794.94;5044455;28;20276;-70
2021/09/11 11:25:00;;;;;;;2.63;2.43;;;;;;;22.38;71.72;95785.13;5038242;28;20293;-70
2021/09/11 11:27:30;;;;;;;1.60;1.50;;;;;;;22.57;70.05;95787.44;5044792;28;20218;-71
2021/09/11 11:30:00;;;;;;;1.37;1.37;;;;;;;22.90;68.34;95787.19;5041651;28;20223;-70
2021/09/11 11:32:32;;;;;;;1.47;1.37;;;;;;;22.56;68.01;95791.19;5046183;28;20309;-70
2021/09/11 11:35:00;;;;;;;1.57;1.47;;;;;;;22.17;70.58;95783.31;5042166;28;20634;-71
2021/09/11 11:37:31;;;;;;;2.23;2.13;;;;;;;22.47;70.10;95781.97;5041247;28;20313;-70
2021/09/11 11:40:01;;;;;;;1.40;1.30;;;;;;;22.86;69.74;95788.81;5051000;28;20269;-70